Time;durP1;ratioP1;P1;durP2;ratioP2;P2;SDS_P1;SDS_P2;PMS_P1;PMS_P2;Temp;Humidity;BMP_temperature;BMP_pressure;BME280_temperature;BME280_humidity;BME280_pressure;Samples;Min_cycle;Max_cycle;Signal;HPM_P1;HPM_P2
2023/10/09 00:03:23;;;;;;;;;;;;;;;13.81;100.00;101906.22;4938605;28;20417;-90
2023/10/09 00:06:12;;;;;;;;;;;;;;;13.81;100.00;101904.44;4940164;28;19930;-90
2023/10/09 00:08:58;;;;;;;;;;;;;;;13.81;100.00;101900.88;4929109;28;19960;-92
2023/10/09 00:11:44;;;;;;;;;;;;;;;13.82;100.00;101906.16;4943470;28;19968;-93
2023/10/09 00:14:30;;;;;;;;;;;;;;;13.80;100.00;101897.38;4942915;28;20028;-93
2023/10/09 00:20:17;;;;;;;;;;;;;;;13.78;100.00;101871.75;4957195;28;20061;-92
2023/10/09 00:23:12;;;;;;;;;;;;;;;13.76;100.00;101860.28;4942658;28;19923;-94
2023/10/09 00:26:16;;;;;;;;;;;;;;;13.76;100.00;101857.63;4929307;28;19930;-91
2023/10/09 00:29:05;;;;;;;;;;;;;;;13.74;100.00;101859.50;4956028;28;19934;-93
2023/10/09 00:38:46;;;;;;;;;;;;;;;13.69;100.00;101843.75;4904501;28;19932;-93
2023/10/09 00:41:35;;;;;;;;;;;;;;;13.68;100.00;101845.53;4904995;29;19998;-93
2023/10/09 00:44:20;;;;;;;;;;;;;;;13.68;100.00;101836.69;4951497;28;20010;-94
2023/10/09 00:47:22;;;;;;;;;;;;;;;13.66;100.00;101839.41;4959768;28;19931;-93
2023/10/09 00:50:21;;;;;;;;;;;;;;;13.67;100.00;101845.59;4934508;28;20357;-94
2023/10/09 00:53:12;;;;;;;;;;;;;;;13.66;100.00;101842.06;4934343;28;21910;-93
2023/10/09 00:56:03;;;;;;;;;;;;;;;13.66;100.00;101842.06;4936518;28;19951;-94
2023/10/09 00:58:55;;;;;;;;;;;;;;;13.67;100.00;101833.16;4938076;28;19933;-93
2023/10/09 01:01:45;;;;;;;;;;;;;;;13.68;100.00;101837.53;4929526;28;19922;-92
2023/10/09 01:04:37;;;;;;;;;;;;;;;13.70;100.00;101826.84;4931824;28;19942;-94
2023/10/09 01:07:25;;;;;;;;;;;;;;;13.70;100.00;101822.41;4942091;28;19993;-94
2023/10/09 01:10:11;;;;;;;;;;;;;;;13.70;100.00;101822.41;4936108;28;19930;-93
2023/10/09 01:12:59;;;;;;;;;;;;;;;13.72;100.00;101809.00;4941603;28;20345;-91
2023/10/09 01:15:45;;;;;;;;;;;;;;;13.74;100.00;101811.59;4935820;28;19934;-93
2023/10/09 01:18:36;;;;;;;;;;;;;;;13.77;100.00;101796.38;4931714;28;20077;-92
2023/10/09 01:21:24;;;;;;;;;;;;;;;13.79;100.00;101788.31;4930967;28;20287;-92
2023/10/09 01:24:11;;;;;;;;;;;;;;;13.81;100.00;101789.09;4936038;28;20665;-93
2023/10/09 01:26:59;;;;;;;;;;;;;;;13.84;100.00;101792.50;4924190;28;21930;-93
2023/10/09 01:29:45;;;;;;;;;;;;;;;13.87;100.00;101785.31;4925720;28;20025;-91
2023/10/09 01:32:31;;;;;;;;;;;;;;;13.89;100.00;101778.97;4945531;28;20439;-96
2023/10/09 01:35:21;;;;;;;;;;;;;;;13.92;100.00;101772.66;4941805;28;20592;-95
2023/10/09 01:38:15;;;;;;;;;;;;;;;13.94;100.00;101766.34;4931252;28;19950;-94
2023/10/09 01:41:07;;;;;;;;;;;;;;;13.98;100.00;101767.06;4931985;28;20959;-95
2023/10/09 01:44:00;;;;;;;;;;;;;;;14.01;100.00;101772.25;4931673;28;20503;-93
2023/10/09 01:46:46;;;;;;;;;;;;;;;14.05;100.00;101762.34;4929846;28;19938;-94
2023/10/09 01:49:37;;;;;;;;;;;;;;;14.09;100.00;101756.78;4929582;28;19941;-93
2023/10/09 01:52:23;;;;;;;;;;;;;;;14.12;100.00;101759.31;4930010;28;19927;-92
2023/10/09 01:55:13;;;;;;;;;;;;;;;14.16;100.00;101762.69;4933444;28;19932;-94
2023/10/09 01:58:05;;;;;;;;;;;;;;;14.17;100.00;101756.44;4950615;28;19930;-93
2023/10/09 02:00:55;;;;;;;;;;;;;;;14.21;100.00;101759.81;4934497;28;19930;-95
2023/10/09 02:03:42;;;;;;;;;;;;;;;14.23;100.00;101756.16;4927361;28;19930;-95
2023/10/09 02:06:30;;;;;;;;;;;;;;;14.26;100.00;101749.81;4940774;28;19930;-92
2023/10/09 02:09:22;;;;;;;;;;;;;;;14.28;100.00;101745.31;4939874;28;20025;-94
2023/10/09 02:12:08;;;;;;;;;;;;;;;14.30;100.00;101739.88;4937102;28;19930;-94
2023/10/09 02:14:55;;;;;;;;;;;;;;;14.31;100.00;101742.47;4938480;28;19930;-94
2023/10/09 02:17:52;;;;;;;;;;;;;;;14.31;100.00;101736.28;4938372;28;19926;-93
2023/10/09 02:20:37;;;;;;;;;;;;;;;14.32;100.00;101744.19;4950597;28;19930;-93
2023/10/09 02:23:30;;;;;;;;;;;;;;;14.33;100.00;101729.09;4937082;28;19930;-93
2023/10/09 02:26:26;;;;;;;;;;;;;;;14.32;100.00;101733.53;4944430;28;19926;-95
2023/10/09 02:32:13;;;;;;;;;;;;;;;14.32;100.00;101732.69;4950232;28;20384;-94
2023/10/09 02:35:08;;;;;;;;;;;;;;;14.30;100.00;101713.25;4953999;28;20020;-94
2023/10/09 02:37:54;;;;;;;;;;;;;;;14.31;100.00;101713.19;4952914;28;19985;-96
2023/10/09 02:43:47;;;;;;;;;;;;;;;14.32;100.00;101700.75;4964175;28;19966;-94
2023/10/09 02:46:34;;;;;;;;;;;;;;;14.33;100.00;101697.13;4944613;28;19934;-93
2023/10/09 02:49:21;;;;;;;;;;;;;;;14.31;100.00;101705.19;4939511;28;20329;-95
2023/10/09 02:52:07;;;;;;;;;;;;;;;14.30;100.00;101706.13;4947564;28;19954;-95
2023/10/09 02:54:59;;;;;;;;;;;;;;;14.31;100.00;101704.31;4949785;28;19929;-93
2023/10/09 02:57:45;;;;;;;;;;;;;;;14.34;100.00;101704.19;4939795;28;19938;-94
2023/10/09 03:00:32;;;;;;;;;;;;;;;14.37;100.00;101698.69;4939492;28;19968;-94
2023/10/09 03:03:18;;;;;;;;;;;;;;;14.39;100.00;101704.84;4962024;28;22097;-94
2023/10/09 03:06:11;;;;;;;;;;;;;;;14.44;100.00;101700.13;4953544;28;20205;-95
2023/10/09 03:08:57;;;;;;;;;;;;;;;14.48;100.00;101693.72;4942160;28;19997;-92
2023/10/09 03:11:47;;;;;;;;;;;;;;;14.50;100.00;101686.50;4960317;28;19922;-93
2023/10/09 03:14:37;;;;;;;;;;;;;;;14.55;100.00;101690.75;4940958;28;19926;-95
2023/10/09 03:17:23;;;;;;;;;;;;;;;14.60;100.00;101686.94;4949537;28;19930;-94
2023/10/09 03:20:12;;;;;;;;;;;;;;;14.65;100.00;101681.38;4937149;28;19933;-94
2023/10/09 03:23:01;;;;;;;;;;;;;;;14.68;100.00;101683.91;4936898;28;19927;-95
2023/10/09 03:25:46;;;;;;;;;;;;;;;14.72;100.00;101682.81;4948773;28;19933;-94
2023/10/09 03:28:35;;;;;;;;;;;;;;;14.79;100.00;101686.94;4966320;28;19925;-93
2023/10/09 03:31:22;;;;;;;;;;;;;;;14.86;100.00;101697.28;4943963;28;19922;-94
2023/10/09 03:34:10;;;;;;;;;;;;;;;14.88;100.00;101698.91;4941121;28;19973;-93
2023/10/09 03:37:05;;;;;;;;;;;;;;;14.92;100.00;101704.94;4944235;28;19926;-94
2023/10/09 03:39:59;;;;;;;;;;;;;;;14.94;100.00;101697.75;4947758;28;20429;-92
2023/10/09 03:42:44;;;;;;;;;;;;;;;14.98;100.00;101696.66;4936963;28;19953;-95
2023/10/09 03:45:35;;;;;;;;;;;;;;;15.02;100.00;101695.56;4934667;28;19926;-95
2023/10/09 03:48:22;;;;;;;;;;;;;;;15.05;100.00;101695.38;4936233;28;20509;-95
2023/10/09 03:51:21;;;;;;;;;;;;;;;15.11;100.00;101693.34;4943468;28;19926;-95
2023/10/09 03:54:07;;;;;;;;;;;;;;;15.13;100.00;101697.69;4955666;28;19981;-94
2023/10/09 03:56:54;;;;;;;;;;;;;;;15.16;100.00;101696.66;4945819;28;19954;-95
2023/10/09 03:59:44;;;;;;;;;;;;;;;15.19;100.00;101704.50;4953401;28;19930;-95
2023/10/09 04:02:31;;;;;;;;;;;;;;;15.21;100.00;101707.97;4942986;28;19961;-93
2023/10/09 04:05:17;;;;;;;;;;;;;;;15.26;100.00;101707.72;4941749;28;19934;-94
2023/10/09 04:08:11;;;;;;;;;;;;;;;15.31;100.00;101709.19;4966992;28;19926;-95
2023/10/09 04:11:04;;;;;;;;;;;;;;;15.34;100.00;101703.72;4963631;28;19961;-95
2023/10/09 04:13:50;;;;;;;;;;;;;;;15.39;100.00;101692.81;4952935;28;19922;-95
2023/10/09 04:16:51;;;;;;;;;;;;;;;15.42;100.00;101687.28;4957147;28;20293;-96
2023/10/09 04:19:47;;;;;;;;;;;;;;;15.44;100.00;101681.88;4972396;28;19922;-96
2023/10/09 04:22:39;;;;;;;;;;;;;;;15.45;100.00;101702.28;4944152;28;19922;-96
2023/10/09 04:25:29;;;;;;;;;;;;;;;15.47;100.00;101711.06;4936891;28;19926;-92
2023/10/09 04:31:06;;;;;;;;;;;;;;;15.47;100.00;101713.72;4955301;28;20648;-95
2023/10/09 04:34:21;;;;;;;;;;;;;;;15.44;100.00;101713.91;4932939;28;19934;-95
2023/10/09 04:37:00;;;;;;;;;;;;;;;15.42;100.00;101699.78;4948591;28;19937;-96
2023/10/09 04:40:01;;;;;;;;;;;;;;;15.40;100.00;101688.31;4934337;28;19949;-96
2023/10/09 04:42:58;;;;;;;;;;;;;;;15.38;100.00;101690.19;4941348;28;19922;-95
2023/10/09 04:48:41;;;;;;;;;;;;;;;15.32;100.00;101707.41;4958288;28;20017;-96
2023/10/09 04:51:35;;;;;;;;;;;;;;;15.29;100.00;101716.44;4944482;28;19945;-96
2023/10/09 04:54:38;;;;;;;;;;;;;;;15.27;100.00;101720.97;4943932;28;19973;-94
2023/10/09 04:57:25;;;;;;;;;;;;;;;15.27;100.00;101728.13;4946295;28;19928;-92
2023/10/09 05:03:24;;;;;;;;;;;;;;;15.25;100.00;101711.34;4953306;28;20022;-94
2023/10/09 05:09:55;;;;;;;;;;;;;;;15.23;100.00;101716.75;4920268;29;19927;-96
2023/10/09 05:12:46;;;;;;;;;;;;;;;15.23;100.00;101722.06;4914590;29;19973;-93
2023/10/09 05:15:34;;;;;;;;;;;;;;;15.23;100.00;101740.75;4949013;28;19980;-96
2023/10/09 05:18:27;;;;;;;;;;;;;;;15.24;100.00;101741.63;4944618;28;19934;-94
2023/10/09 05:33:27;;;;;;;;;;;;;;;15.23;100.00;101743.41;4943836;28;19950;-94
2023/10/09 05:39:58;;;;;;;;;;;;;;;15.24;100.00;101742.47;4943182;28;19965;-93
2023/10/09 05:42:28;;;;;;;;;;;;;;;15.26;100.00;101755.72;4939164;28;19930;-94
2023/10/09 05:54:11;;;;;;;;;;;;;;;15.29;100.00;101761.78;4953628;28;20425;-96
2023/10/09 05:58:09;;;;;;;;;;;;;;;15.29;100.00;101756.44;4954401;28;19930;-95
2023/10/09 06:03:45;;;;;;;;;;;;;;;15.32;100.00;101750.09;4913996;29;19954;-91
2023/10/09 06:06:33;;;;;;;;;;;;;;;15.34;100.00;101748.19;4932618;28;20616;-93
2023/10/09 06:12:33;;;;;;;;;;;;;;;15.36;100.00;101748.13;4943743;28;20393;-91
2023/10/09 06:18:26;;;;;;;;;;;;;;;15.37;100.00;101733.84;4948448;28;19969;-95
2023/10/09 06:24:16;;;;;;;;;;;;;;;15.36;100.00;101746.31;4962567;28;19926;-92
2023/10/09 06:29:51;;;;;;;;;;;;;;;15.38;100.00;101746.22;4950559;28;20012;-96
2023/10/09 06:32:37;;;;;;;;;;;;;;;15.37;100.00;101741.84;4947689;28;20086;-93
2023/10/09 06:35:22;;;;;;;;;;;;;;;15.38;100.00;101740.91;4947948;28;19927;-91
2023/10/09 06:38:22;;;;;;;;;;;;;;;15.36;100.00;101737.44;4937602;28;19977;-92
2023/10/09 06:44:51;;;;;;;;;;;;;;;15.31;100.00;101737.69;4946678;28;19980;-90
2023/10/09 06:47:17;;;;;;;;;;;;;;;15.30;100.00;101731.47;4946973;28;19937;-91
2023/10/09 06:56:05;;;;;;;;;;;;;;;15.25;100.00;101716.66;4939543;28;20057;-89
2023/10/09 06:58:54;;;;;;;;;;;;;;;15.23;100.00;101708.75;4939706;28;19938;-93
2023/10/09 07:01:44;;;;;;;;;;;;;;;15.23;100.00;101707.84;4930759;28;20412;-89
2023/10/09 07:07:20;;;;;;;;;;;;;;;15.20;100.00;101688.41;4938507;28;19922;-90
2023/10/09 07:13:11;;;;;;;;;;;;;;;15.18;100.00;101689.44;4943225;28;19941;-89
2023/10/09 07:19:09;;;;;;;;;;;;;;;15.18;100.00;101702.75;4939052;28;19922;-92
2023/10/09 07:21:55;;;;;;;;;;;;;;;15.19;100.00;101707.16;4928758;28;20788;-92
2023/10/09 07:24:43;;;;;;;;;;;;;;;15.19;100.00;101713.38;4938988;28;20283;-92
2023/10/09 07:27:48;;;;;;;;;;;;;;;15.20;100.00;101722.25;4933988;28;19946;-93
2023/10/09 07:33:30;;;;;;;;;;;;;;;15.23;100.00;101739.88;4937590;28;19934;-93
2023/10/09 07:36:16;;;;;;;;;;;;;;;15.24;100.00;101757.63;4930767;28;19930;-96
2023/10/09 07:39:02;;;;;;;;;;;;;;;15.26;100.00;101769.06;4930557;28;19985;-94
2023/10/09 07:42:15;;;;;;;;;;;;;;;15.26;100.00;101772.59;4925677;28;20028;-92
2023/10/09 07:45:12;;;;;;;;;;;;;;;15.27;100.00;101777.00;4942331;28;19958;-94
2023/10/09 07:48:04;;;;;;;;;;;;;;;15.28;100.00;101768.06;4939218;28;19930;-95
2023/10/09 07:50:57;;;;;;;;;;;;;;;15.29;100.00;101783.13;4950987;28;19923;-94
2023/10/09 07:53:48;;;;;;;;;;;;;;;15.30;100.00;101784.84;4939929;28;19926;-90
2023/10/09 07:56:41;;;;;;;;;;;;;;;15.32;100.00;101798.94;4938245;28;20398;-95
2023/10/09 07:59:31;;;;;;;;;;;;;;;15.32;100.00;101801.63;4939039;28;19962;-94
2023/10/09 08:02:17;;;;;;;;;;;;;;;15.34;100.00;101801.56;4937141;28;19937;-94
2023/10/09 08:05:22;;;;;;;;;;;;;;;15.34;100.00;101807.75;4963064;28;19926;-95
2023/10/09 08:17:15;;;;;;;;;;;;;;;15.40;100.00;101816.38;4951105;28;19960;-95
2023/10/09 08:20:11;;;;;;;;;;;;;;;15.43;100.00;101810.91;4935402;28;19930;-94
2023/10/09 08:22:56;;;;;;;;;;;;;;;15.44;100.00;101812.63;4947183;28;20064;-96
2023/10/09 08:25:57;;;;;;;;;;;;;;;15.47;100.00;101812.44;4941779;28;19934;-92
2023/10/09 08:28:45;;;;;;;;;;;;;;;15.50;100.00;101822.97;4942096;28;19965;-95
2023/10/09 08:31:46;;;;;;;;;;;;;;;15.51;100.00;101819.38;4963529;28;22101;-96
2023/10/09 08:34:48;;;;;;;;;;;;;;;15.53;100.00;101820.16;4947725;28;19934;-92
2023/10/09 08:37:39;;;;;;;;;;;;;;;15.56;100.00;101829.81;4951080;28;19973;-96
2023/10/09 08:40:39;;;;;;;;;;;;;;;15.57;100.00;101819.06;4936466;28;19931;-95
2023/10/09 08:43:24;;;;;;;;;;;;;;;15.58;100.00;101830.63;4932941;28;20889;-93
2023/10/09 08:46:18;;;;;;;;;;;;;;;15.57;100.00;101826.19;4928559;28;19934;-88
2023/10/09 08:49:07;;;;;;;;;;;;;;;15.57;100.00;101828.84;4929383;28;19926;-92
2023/10/09 08:51:53;;;;;;;;;;;;;;;15.54;100.00;101829.03;4931209;28;19930;-90
2023/10/09 08:54:38;;;;;;;;;;;;;;;15.54;100.00;101823.69;4924100;28;20523;-86
2023/10/09 08:57:24;;;;;;;;;;;;;;;15.55;100.00;101820.94;4953322;28;19954;-92
2023/10/09 09:00:21;;;;;;;;;;;;;;;15.57;100.00;101816.41;4927986;28;19941;-90
2023/10/09 09:03:06;;;;;;;;;;;;;;;15.59;100.00;101806.50;4938030;28;20527;-93
2023/10/09 09:06:01;;;;;;;;;;;;;;;15.63;100.00;101817.03;4925384;28;19926;-92
2023/10/09 09:08:47;;;;;;;;;;;;;;;15.64;100.00;101805.41;4935843;28;19934;-92
2023/10/09 09:11:36;;;;;;;;;;;;;;;15.67;100.00;101808.78;4929467;28;20378;-93
2023/10/09 09:14:22;;;;;;;;;;;;;;;15.72;100.00;101806.75;4937407;28;19933;-89
2023/10/09 09:17:11;;;;;;;;;;;;;;;15.77;100.00;101814.50;4930800;28;19941;-89
2023/10/09 09:19:59;;;;;;;;;;;;;;;15.79;100.00;101828.63;4923557;28;20021;-92
2023/10/09 09:22:52;;;;;;;;;;;;;;;15.81;100.00;101832.09;4934147;28;20045;-93
2023/10/09 09:25:44;;;;;;;;;;;;;;;15.83;100.00;101842.69;4933269;28;19929;-92
2023/10/09 09:28:38;;;;;;;;;;;;;;;15.84;100.00;101847.94;4950800;28;19930;-92
2023/10/09 09:31:24;;;;;;;;;;;;;;;15.84;100.00;101852.41;4939551;28;20420;-94
2023/10/09 09:34:16;;;;;;;;;;;;;;;15.85;100.00;101857.69;4926767;28;19930;-93
2023/10/09 09:37:04;;;;;;;;;;;;;;;15.87;100.00;101860.28;4922863;28;20310;-93
2023/10/09 09:39:51;;;;;;;;;;;;;;;15.87;100.00;101858.44;4930294;28;20376;-92
2023/10/09 09:42:37;;;;;;;;;;;;;;;15.92;100.00;101858.28;4932343;28;19985;-93
2023/10/09 09:45:23;;;;;;;;;;;;;;;15.96;100.00;101856.31;4944218;28;19926;-93
2023/10/09 09:48:10;;;;;;;;;;;;;;;15.99;100.00;101843.66;4927161;28;20301;-92
2023/10/09 09:50:55;;;;;;;;;;;;;;;16.04;100.00;101848.75;4929772;28;19933;-91
2023/10/09 09:53:41;;;;;;;;;;;;;;;16.09;100.00;101846.69;4931044;28;20521;-90
2023/10/09 09:56:28;;;;;;;;;;;;;;;16.13;100.00;101853.59;4926900;28;19926;-93
2023/10/09 09:59:21;;;;;;;;;;;;;;;16.15;100.00;101851.72;4937423;28;19926;-92
2023/10/09 10:02:11;;;;;;;;;;;;;;;16.17;100.00;101864.97;4932064;28;19923;-90
2023/10/09 10:04:57;;;;;;;;;;;;;;;16.18;100.00;101865.84;4939399;28;20601;-90
2023/10/09 10:07:49;;;;;;;;;;;;;;;16.17;100.00;101864.97;4938587;28;19926;-94
2023/10/09 10:11:24;;;;;;;;;;;;;;;16.17;100.00;101870.31;4927023;28;19927;-93
2023/10/09 10:13:48;;;;;;;;;;;;;;;16.17;100.00;101872.97;4934856;28;19935;-91
2023/10/09 10:16:34;;;;;;;;;;;;;;;16.16;100.00;101873.94;4936995;28;20190;-92
2023/10/09 10:22:27;;;;;;;;;;;;;;;16.17;100.00;101885.50;4940522;28;19981;-93
2023/10/09 10:25:41;;;;;;;;;;;;;;;16.17;100.00;101889.00;4928738;28;20346;-95
2023/10/09 10:28:38;;;;;;;;;;;;;;;16.18;100.00;101882.72;4944624;28;20014;-92
2023/10/09 10:31:43;;;;;;;;;;;;;;;16.20;100.00;101890.66;4937983;28;20478;-94
2023/10/09 10:34:55;;;;;;;;;;;;;;;16.21;100.00;101893.25;4945202;28;19922;-95
2023/10/09 10:37:50;;;;;;;;;;;;;;;16.22;100.00;101886.97;4950200;28;19926;-96
2023/10/09 10:40:46;;;;;;;;;;;;;;;16.24;100.00;101886.91;4938455;28;19998;-91
2023/10/09 10:43:32;;;;;;;;;;;;;;;16.26;100.00;101885.00;4935523;28;19931;-92
2023/10/09 10:46:24;;;;;;;;;;;;;;;16.28;100.00;101880.44;4944404;28;19978;-95
2023/10/09 10:49:21;;;;;;;;;;;;;;;16.29;100.00;101880.34;4939551;28;19930;-90
2023/10/09 10:52:16;;;;;;;;;;;;;;;16.31;100.00;101884.75;4938850;28;19930;-91
2023/10/09 10:58:23;;;;;;;;;;;;;;;16.41;100.00;101884.16;4950105;28;19930;-92
2023/10/09 11:01:11;;;;;;;;;;;;;;;16.49;100.00;101890.91;4938752;28;19968;-92
2023/10/09 11:03:58;;;;;;;;;;;;;;;16.55;100.00;101896.81;4930941;28;20018;-95
2023/10/09 11:06:48;;;;;;;;;;;;;;;16.63;100.00;101903.53;4937631;28;20017;-92
2023/10/09 11:15:44;;;;;;;;;;;;;;;16.74;100.00;101910.97;4940902;28;19934;-92
2023/10/09 11:18:30;;;;;;;;;;;;;;;16.72;100.00;101902.19;4934873;28;19937;-93
2023/10/09 11:27:06;;;;;;;;;;;;;;;16.62;100.00;101907.16;4958647;28;19954;-91
2023/10/09 11:32:38;;;;;;;;;;;;;;;16.54;100.00;101911.13;4942133;28;20045;-94
2023/10/09 11:35:34;;;;;;;;;;;;;;;16.53;100.00;101908.53;4942343;28;19944;-93
2023/10/09 11:38:23;;;;;;;;;;;;;;;16.47;100.00;101901.69;4932877;28;20485;-94
2023/10/09 11:41:19;;;;;;;;;;;;;;;16.43;100.00;101897.47;4934165;28;19941;-93
2023/10/09 11:44:05;;;;;;;;;;;;;;;16.43;100.00;101901.00;4943777;28;19926;-91
2023/10/09 11:50:17;;;;;;;;;;;;;;;16.50;100.00;101898.00;4939759;28;19981;-91
2023/10/09 11:53:08;;;;;;;;;;;;;;;16.49;100.00;101896.25;4931520;28;20404;-94
2023/10/09 11:55:54;;;;;;;;;;;;;;;16.46;100.00;101880.41;4937137;28;20008;-94
2023/10/09 11:58:43;;;;;;;;;;;;;;;16.49;100.00;101885.56;4957639;28;19930;-96
2023/10/09 12:01:35;;;;;;;;;;;;;;;16.52;100.00;101888.09;4945470;28;19929;-94
2023/10/09 12:04:29;;;;;;;;;;;;;;;16.56;100.00;101882.50;4946488;28;19938;-93
2023/10/09 12:07:16;;;;;;;;;;;;;;;16.58;100.00;101884.22;4934509;28;19962;-95
2023/10/09 12:10:02;;;;;;;;;;;;;;;16.58;100.00;101882.41;4943918;28;19932;-92
2023/10/09 12:12:48;;;;;;;;;;;;;;;16.58;100.00;101869.03;4926478;28;20036;-90
2023/10/09 12:15:37;;;;;;;;;;;;;;;16.59;100.00;101869.88;4939320;28;20076;-92
2023/10/09 12:18:23;;;;;;;;;;;;;;;16.62;100.00;101873.25;4933829;28;20646;-93
2023/10/09 12:21:15;;;;;;;;;;;;;;;16.66;100.00;101877.50;4933859;28;20401;-91
2023/10/09 12:24:01;;;;;;;;;;;;;;;16.74;100.00;101876.22;4935885;28;20452;-92
2023/10/09 12:26:47;;;;;;;;;;;;;;;16.76;100.00;101877.84;4937791;28;19930;-92
2023/10/09 12:29:33;;;;;;;;;;;;;;;16.80;100.00;101875.88;4936341;28;19981;-90
2023/10/09 12:32:20;;;;;;;;;;;;;;;16.82;100.00;101882.00;4940100;28;19977;-93
2023/10/09 12:35:17;;;;;;;;;;;;;;;16.86;100.00;101872.84;4940459;28;20492;-88
2023/10/09 12:38:03;;;;;;;;;;;;;;;16.89;100.00;101883.38;4930536;28;19934;-91
2023/10/09 12:40:52;;;;;;;;;;;;;;;16.90;100.00;101879.78;4940073;28;19938;-93
2023/10/09 12:43:38;;;;;;;;;;;;;;;16.91;100.00;101884.16;4940965;28;19930;-90
2023/10/09 12:46:25;;;;;;;;;;;;;;;16.92;100.00;101877.88;4925081;28;20377;-89
2023/10/09 12:49:11;;;;;;;;;;;;;;;16.90;100.00;101879.78;4942411;28;19968;-89
2023/10/09 12:51:57;;;;;;;;;;;;;;;16.89;100.00;101882.53;4931293;28;19931;-91
2023/10/09 12:54:43;;;;;;;;;;;;;;;16.90;100.00;101874.44;4943151;28;19937;-89
2023/10/09 12:57:28;;;;;;;;;;;;;;;16.91;100.00;101872.59;4924235;28;19941;-90
2023/10/09 13:00:25;;;;;;;;;;;;;;;16.92;100.00;101863.63;4951995;28;19930;-89
2023/10/09 13:03:16;;;;;;;;;;;;;;;16.92;100.00;101866.28;4926414;28;21241;-88
2023/10/09 13:06:07;;;;;;;;;;;;;;;16.95;100.00;101864.31;4935381;28;20028;-91
2023/10/09 13:08:52;;;;;;;;;;;;;;;17.00;100.00;101877.41;4932315;28;19974;-88
2023/10/09 13:11:40;;;;;;;;;;;;;;;16.99;100.00;101877.53;4940091;28;19926;-88
2023/10/09 13:14:33;;;;;;;;;;;;;;;16.98;100.00;101879.31;4929038;28;20077;-94
2023/10/09 13:17:21;;;;;;;;;;;;;;;17.00;100.00;101885.44;4931815;28;20701;-89
2023/10/09 13:20:16;;;;;;;;;;;;;;;17.03;100.00;101879.09;4944030;28;20031;-90
2023/10/09 13:23:02;;;;;;;;;;;;;;;17.08;100.00;101874.34;4927915;28;20021;-88
2023/10/09 13:25:47;;;;;;;;;;;;;;;17.16;100.00;101882.78;4960755;28;21730;-94
2023/10/09 13:28:37;;;;;;;;;;;;;;;17.21;100.00;101883.41;4932751;28;19952;-91
2023/10/09 13:31:26;;;;;;;;;;;;;;;17.19;100.00;101885.31;4927365;28;19927;-90
2023/10/09 13:34:14;;;;;;;;;;;;;;;17.19;100.00;101889.78;4930016;28;19934;-90
2023/10/09 13:37:11;;;;;;;;;;;;;;;17.16;100.00;101903.34;4944439;28;20048;-94
2023/10/09 13:39:57;;;;;;;;;;;;;;;17.13;100.00;101896.38;4931320;28;20510;-89
2023/10/09 13:42:47;;;;;;;;;;;;;;;17.12;100.00;101893.75;4930255;28;19973;-91
2023/10/09 13:45:38;;;;;;;;;;;;;;;17.10;100.00;101891.16;4933525;28;19934;-90
2023/10/09 13:48:23;;;;;;;;;;;;;;;17.12;100.00;101888.41;4945783;28;19937;-87
2023/10/09 13:51:13;;;;;;;;;;;;;;;17.10;100.00;101899.19;4945911;28;19989;-90
2023/10/09 13:53:59;;;;;;;;;;;;;;;17.09;100.00;101900.16;4940632;28;19934;-90
2023/10/09 13:56:45;;;;;;;;;;;;;;;17.05;100.00;101904.81;4934612;28;19927;-91
2023/10/09 13:59:31;;;;;;;;;;;;;;;17.00;100.00;101895.28;4930361;28;19922;-93
2023/10/09 14:02:21;;;;;;;;;;;;;;;16.93;100.00;101894.75;4929517;28;19934;-89
2023/10/09 14:05:08;;;;;;;;;;;;;;;16.87;100.00;101897.78;4940584;28;19923;-90
2023/10/09 14:07:59;;;;;;;;;;;;;;;16.83;100.00;101902.44;4935572;28;20378;-91
2023/10/09 14:10:48;;;;;;;;;;;;;;;16.76;100.00;101899.25;4949473;28;19978;-91
2023/10/09 14:13:33;;;;;;;;;;;;;;;16.73;100.00;101909.25;4950822;28;20843;-92
2023/10/09 14:16:29;;;;;;;;;;;;;;;16.69;100.00;101905.88;4938362;28;19922;-89
2023/10/09 14:19:20;;;;;;;;;;;;;;;16.68;100.00;101912.19;4945406;28;20018;-91
2023/10/09 14:22:07;;;;;;;;;;;;;;;16.65;100.00;101906.97;4938258;28;20249;-91
2023/10/09 14:24:56;;;;;;;;;;;;;;;16.62;100.00;101915.19;4937600;28;19930;-94
2023/10/09 14:27:41;;;;;;;;;;;;;;;16.55;100.00;101909.28;4934472;28;19934;-90
2023/10/09 14:30:32;;;;;;;;;;;;;;;16.50;100.00;101904.19;4935464;28;19942;-89
2023/10/09 14:33:22;;;;;;;;;;;;;;;16.48;100.00;101905.22;4942007;28;20868;-89
2023/10/09 14:36:14;;;;;;;;;;;;;;;16.45;100.00;101910.75;4938055;28;19931;-89
2023/10/09 14:39:00;;;;;;;;;;;;;;;16.40;100.00;101901.16;4936255;28;19986;-91
2023/10/09 14:41:46;;;;;;;;;;;;;;;16.39;100.00;101911.91;4939094;28;20037;-94
2023/10/09 14:44:31;;;;;;;;;;;;;;;16.37;100.00;101909.34;4936672;28;21843;-94
2023/10/09 14:47:18;;;;;;;;;;;;;;;16.38;100.00;101912.88;4927161;28;19937;-89
2023/10/09 14:50:08;;;;;;;;;;;;;;;16.38;100.00;101905.72;4942286;28;19973;-92
2023/10/09 14:52:53;;;;;;;;;;;;;;;16.41;100.00;101912.72;4942646;28;19926;-91
2023/10/09 14:55:41;;;;;;;;;;;;;;;16.42;100.00;101901.97;4950615;28;19934;-92
2023/10/09 14:58:29;;;;;;;;;;;;;;;16.43;100.00;101901.00;4934764;28;20290;-90
2023/10/09 15:01:18;;;;;;;;;;;;;;;16.44;100.00;101896.50;4926591;28;19938;-90
2023/10/09 15:04:04;;;;;;;;;;;;;;;16.46;100.00;101893.75;4932717;28;20410;-94
2023/10/09 15:06:49;;;;;;;;;;;;;;;16.47;100.00;101888.34;4940588;28;19931;-91
2023/10/09 15:09:36;;;;;;;;;;;;;;;16.48;100.00;101898.09;4945013;28;19934;-90
2023/10/09 15:12:22;;;;;;;;;;;;;;;16.49;100.00;101894.47;4931674;28;19930;-92
2023/10/09 15:15:13;;;;;;;;;;;;;;;16.47;100.00;101901.69;4932769;28;19930;-93
2023/10/09 15:17:59;;;;;;;;;;;;;;;16.47;100.00;101906.16;4924633;28;19930;-92
2023/10/09 15:20:47;;;;;;;;;;;;;;;16.47;100.00;101911.53;4940331;28;19941;-92
2023/10/09 15:23:33;;;;;;;;;;;;;;;16.45;100.00;101908.91;4926231;28;19930;-91
2023/10/09 15:26:26;;;;;;;;;;;;;;;16.43;100.00;101914.38;4942173;28;19942;-93
2023/10/09 15:29:16;;;;;;;;;;;;;;;16.41;100.00;101916.25;4958989;28;19925;-92
2023/10/09 15:32:04;;;;;;;;;;;;;;;16.41;100.00;101918.06;4930362;28;19930;-91
2023/10/09 15:34:56;;;;;;;;;;;;;;;16.38;100.00;101921.75;4941057;28;19988;-90
2023/10/09 15:37:42;;;;;;;;;;;;;;;16.39;100.00;101919.94;4938099;28;19926;-93
2023/10/09 15:40:29;;;;;;;;;;;;;;;16.37;100.00;101925.38;4955239;28;19949;-93
2023/10/09 15:43:16;;;;;;;;;;;;;;;16.32;100.00;101932.78;4949191;28;19933;-90
2023/10/09 15:46:02;;;;;;;;;;;;;;;16.28;100.00;101934.75;4951110;28;19927;-94
2023/10/09 15:48:47;;;;;;;;;;;;;;;16.23;100.00;101919.91;4952066;28;19926;-90
2023/10/09 15:51:33;;;;;;;;;;;;;;;16.18;100.00;101928.13;4944990;28;19972;-91
2023/10/09 15:54:19;;;;;;;;;;;;;;;16.13;100.00;101925.72;4940507;28;19957;-91
2023/10/09 15:57:05;;;;;;;;;;;;;;;16.10;100.00;101925.00;4948527;28;19934;-89
2023/10/09 15:59:51;;;;;;;;;;;;;;;16.06;100.00;101936.81;4952107;28;20279;-89
2023/10/09 16:02:36;;;;;;;;;;;;;;;16.02;100.00;101930.75;4937841;28;19936;-90
2023/10/09 16:05:30;;;;;;;;;;;;;;;15.99;100.00;101942.47;4942048;28;19926;-92
2023/10/09 16:08:19;;;;;;;;;;;;;;;15.98;100.00;101942.53;4933705;28;19938;-89
2023/10/09 16:11:05;;;;;;;;;;;;;;;15.97;100.00;101948.81;4943391;28;19950;-89
2023/10/09 16:13:51;;;;;;;;;;;;;;;15.94;100.00;101936.47;4929569;28;19926;-90
2023/10/09 16:16:43;;;;;;;;;;;;;;;15.94;100.00;101943.63;4929999;28;19934;-89
2023/10/09 16:19:32;;;;;;;;;;;;;;;15.93;100.00;101936.56;4931721;28;19948;-89
2023/10/09 16:22:18;;;;;;;;;;;;;;;15.91;100.00;101936.59;4926390;28;20691;-89
2023/10/09 16:25:09;;;;;;;;;;;;;;;15.89;100.00;101951.84;4929520;28;19926;-89
2023/10/09 16:27:56;;;;;;;;;;;;;;;15.86;100.00;101947.50;4934634;28;19934;-88